createdAt,value
2019-03-28T00:02:17.230Z,15.10
2019-03-28T00:05:22.512Z,15.10
2019-03-28T00:08:25.967Z,15.00
2019-03-28T00:11:28.238Z,15.00
2019-03-28T00:14:30.514Z,14.90
2019-03-28T00:17:32.786Z,14.90
2019-03-28T00:20:35.412Z,14.80
2019-03-28T00:23:53.280Z,14.80
2019-03-28T00:26:55.538Z,14.80
2019-03-28T00:29:57.805Z,14.80
2019-03-28T00:33:00.114Z,14.70
2019-03-28T00:36:02.402Z,14.70
2019-03-28T00:39:05.164Z,14.60
2019-03-28T00:42:07.509Z,14.60
2019-03-28T00:45:10.881Z,14.60
2019-03-28T00:48:13.133Z,14.50
2019-03-28T00:51:15.350Z,14.40
2019-03-28T00:54:17.652Z,14.40
2019-03-28T00:57:19.950Z,14.40
2019-03-28T01:00:22.599Z,14.30
2019-03-28T01:03:24.841Z,14.30
2019-03-28T01:06:27.137Z,14.30
2019-03-28T01:09:29.485Z,14.30
2019-03-28T01:12:31.780Z,14.20
2019-03-28T01:15:34.058Z,14.20
2019-03-28T01:18:36.339Z,14.10
2019-03-28T01:21:38.619Z,14.00
2019-03-28T01:24:40.935Z,14.00
2019-03-28T01:27:43.260Z,14.00
2019-03-28T01:30:46.200Z,14.00
2019-03-28T01:33:48.587Z,13.90
2019-03-28T01:36:50.895Z,13.90
2019-03-28T01:39:53.163Z,13.90
2019-03-28T01:42:56.078Z,13.80
2019-03-28T01:45:59.257Z,13.80
2019-03-28T01:49:03.697Z,13.70
2019-03-28T01:52:05.739Z,13.70
2019-03-28T01:55:08.297Z,13.70
2019-03-28T01:58:10.578Z,13.60
2019-03-28T02:01:12.992Z,13.60
2019-03-28T02:04:15.325Z,13.50
2019-03-28T02:07:17.578Z,13.50
2019-03-28T02:10:19.845Z,13.50
2019-03-28T02:13:22.284Z,13.40
2019-03-28T02:16:24.650Z,13.40
2019-03-28T02:19:26.954Z,13.40
2019-03-28T02:22:29.331Z,13.30
2019-03-28T02:25:31.612Z,13.30
2019-03-28T02:28:35.098Z,13.30
2019-03-28T02:31:37.438Z,13.20
2019-03-28T02:34:39.752Z,13.20
2019-03-28T02:37:42.011Z,13.20
2019-03-28T02:40:44.276Z,13.10
2019-03-28T02:43:46.512Z,13.10
2019-03-28T02:46:48.849Z,13.10
2019-03-28T02:49:51.141Z,13.00
2019-03-28T02:52:53.436Z,13.00
2019-03-28T02:55:55.747Z,12.90
2019-03-28T02:58:58.012Z,12.90
2019-03-28T03:02:00.276Z,12.90
2019-03-28T03:05:02.575Z,12.80
2019-03-28T03:08:05.060Z,12.80
2019-03-28T03:11:07.372Z,12.80
2019-03-28T03:14:09.608Z,12.70
2019-03-28T03:17:11.859Z,12.70
2019-03-28T03:20:14.313Z,12.70
2019-03-28T03:23:16.584Z,12.60
2019-03-28T03:26:18.846Z,12.70
2019-03-28T03:29:21.113Z,12.60
2019-03-28T03:32:23.820Z,12.50
2019-03-28T03:35:26.068Z,12.50
2019-03-28T03:38:28.301Z,12.50
2019-03-28T03:41:30.647Z,12.40
2019-03-28T03:44:32.909Z,12.40
2019-03-28T03:47:35.206Z,12.40
2019-03-28T03:50:37.450Z,12.30
2019-03-28T03:53:39.752Z,12.30
2019-03-28T03:56:41.942Z,12.20
2019-03-28T03:59:44.294Z,12.20
2019-03-28T04:02:46.623Z,12.10
2019-03-28T04:05:48.877Z,12.10
2019-03-28T04:08:51.145Z,12.10
2019-03-28T04:11:53.393Z,12.10
2019-03-28T04:14:55.705Z,12.00
2019-03-28T04:17:58.005Z,12.00
2019-03-28T04:21:00.280Z,12.00
2019-03-28T04:24:02.568Z,11.90
2019-03-28T04:27:04.856Z,11.90
2019-03-28T04:30:07.312Z,11.90
2019-03-28T04:33:09.531Z,11.80
2019-03-28T04:36:11.797Z,11.80
2019-03-28T04:39:14.208Z,11.80
2019-03-28T04:42:16.480Z,11.70
2019-03-28T04:45:19.834Z,11.70
2019-03-28T04:48:22.048Z,11.60
2019-03-28T04:51:24.323Z,11.60
2019-03-28T04:54:26.600Z,11.60
2019-03-28T04:57:29.558Z,11.60
2019-03-28T05:00:31.899Z,11.60
2019-03-28T05:03:34.138Z,11.50
2019-03-28T05:06:37.960Z,11.50
2019-03-28T05:09:40.526Z,11.40
2019-03-28T05:12:42.814Z,11.40
2019-03-28T05:15:45.133Z,11.40
2019-03-28T05:18:47.449Z,11.30
2019-03-28T05:21:49.776Z,11.30
2019-03-28T05:24:52.085Z,11.30
2019-03-28T05:27:54.394Z,11.30
2019-03-28T05:30:56.631Z,11.30
2019-03-28T05:33:58.854Z,11.30
2019-03-28T05:37:01.094Z,11.20
2019-03-28T05:40:03.321Z,11.20
2019-03-28T05:43:05.545Z,11.20
2019-03-28T05:46:07.785Z,11.20
2019-03-28T05:49:10.026Z,11.20
2019-03-28T05:52:12.303Z,11.20
2019-03-28T05:55:14.545Z,11.20
2019-03-28T05:58:16.790Z,11.10
2019-03-28T06:01:19.040Z,11.10
2019-03-28T06:04:21.311Z,11.10
2019-03-28T06:07:23.575Z,11.10
2019-03-28T06:10:25.807Z,11.10
2019-03-28T06:13:28.047Z,11.20
2019-03-28T06:16:30.330Z,11.10
2019-03-28T06:19:32.565Z,11.10
2019-03-28T06:22:34.865Z,11.00
2019-03-28T06:25:40.793Z,11.00
2019-03-28T06:28:41.083Z,11.00
2019-03-28T06:31:54.763Z,11.00
2019-03-28T06:34:47.301Z,11.00
2019-03-28T06:37:51.408Z,11.00
2019-03-28T06:40:54.016Z,10.90
2019-03-28T06:43:56.304Z,11.00
2019-03-28T06:46:58.552Z,11.10
2019-03-28T06:50:00.819Z,11.10
2019-03-28T06:53:03.487Z,11.10
2019-03-28T06:56:05.874Z,11.20
2019-03-28T06:59:08.114Z,11.20
2019-03-28T07:02:10.371Z,11.20
2019-03-28T07:05:14.581Z,11.30
2019-03-28T07:08:16.882Z,11.30
2019-03-28T07:11:19.108Z,11.40
2019-03-28T07:14:21.355Z,11.50
2019-03-28T07:17:25.246Z,11.50
2019-03-28T07:20:27.566Z,11.60
2019-03-28T07:23:29.797Z,11.70
2019-03-28T07:26:32.035Z,11.80
2019-03-28T07:29:34.271Z,11.80
2019-03-28T07:32:36.624Z,11.90
2019-03-28T07:35:38.925Z,12.00
2019-03-28T07:38:41.222Z,12.10
2019-03-28T07:41:43.474Z,12.10
2019-03-28T07:44:45.764Z,12.20
2019-03-28T07:47:55.120Z,12.30
2019-03-28T07:50:57.450Z,12.30
2019-03-28T07:53:59.735Z,12.40
2019-03-28T07:57:02.006Z,12.50
2019-03-28T08:00:05.409Z,12.60
2019-03-28T08:03:07.823Z,12.60
2019-03-28T08:06:12.600Z,12.80
2019-03-28T08:09:17.352Z,12.80
2019-03-28T08:12:22.793Z,12.90
2019-03-28T08:15:22.037Z,13.00
2019-03-28T08:18:24.405Z,13.10
2019-03-28T08:21:26.628Z,13.20
2019-03-28T08:24:32.072Z,13.30
2019-03-28T08:27:34.332Z,13.30
2019-03-28T08:30:38.898Z,13.40
2019-03-28T08:33:43.452Z,13.50
2019-03-28T08:36:46.300Z,13.60
2019-03-28T08:39:48.545Z,13.70
2019-03-28T08:42:50.855Z,13.80
2019-03-28T08:45:53.206Z,13.80
2019-03-28T08:48:55.480Z,13.90
2019-03-28T08:51:57.801Z,14.10
2019-03-28T08:55:00.064Z,14.10
2019-03-28T08:58:02.375Z,14.20
2019-03-28T09:01:05.911Z,14.30
2019-03-28T09:04:08.838Z,14.40
2019-03-28T09:07:12.527Z,14.50
2019-03-28T09:10:15.994Z,14.60
2019-03-28T09:13:18.663Z,14.70
2019-03-28T09:16:21.316Z,14.80
2019-03-28T09:19:23.910Z,14.90
2019-03-28T09:22:26.532Z,15.00
2019-03-28T09:25:30.487Z,15.10
2019-03-28T09:28:33.236Z,15.20
2019-03-28T09:31:35.955Z,15.40
2019-03-28T09:34:38.624Z,15.50
2019-03-28T09:37:41.222Z,15.60
2019-03-28T09:40:44.757Z,15.70
2019-03-28T09:43:55.292Z,15.90
2019-03-28T09:46:51.737Z,16.00
2019-03-28T09:49:54.482Z,16.10
2019-03-28T09:52:57.201Z,16.30
2019-03-28T09:55:59.827Z,16.40
2019-03-28T09:59:02.509Z,16.60
2019-03-28T10:02:06.073Z,16.70
2019-03-28T10:05:09.754Z,16.90
2019-03-28T10:08:13.100Z,17.00
2019-03-28T10:11:15.935Z,17.20
2019-03-28T10:14:20.016Z,17.30
2019-03-28T10:17:30.952Z,17.50
2019-03-28T10:20:33.405Z,17.70
2019-03-28T10:23:35.819Z,17.90
2019-03-28T10:26:38.160Z,18.10
2019-03-28T10:29:40.502Z,18.30
2019-03-28T10:32:42.957Z,18.40
2019-03-28T10:35:45.428Z,18.60
2019-03-28T10:38:47.833Z,18.80
2019-03-28T10:41:50.224Z,19.00
2019-03-28T10:44:52.629Z,19.20
2019-03-28T10:47:54.862Z,19.40
2019-03-28T10:50:57.327Z,19.30
2019-03-28T10:53:59.628Z,19.30
2019-03-28T10:57:12.917Z,19.20
2019-03-28T11:00:06.763Z,19.20
2019-03-28T11:03:09.224Z,19.20
2019-03-28T11:06:11.534Z,19.40
2019-03-28T11:09:13.846Z,19.90
2019-03-28T11:12:16.118Z,20.10
2019-03-28T11:15:21.557Z,20.30
2019-03-28T11:18:23.483Z,20.40
2019-03-28T11:21:25.753Z,20.50
2019-03-28T11:24:28.022Z,20.70
2019-03-28T11:27:30.277Z,20.80
2019-03-28T11:30:32.559Z,20.80
2019-03-28T11:33:34.844Z,20.90
2019-03-28T11:36:37.171Z,21.20
2019-03-28T11:39:39.456Z,21.50
2019-03-28T11:42:41.723Z,21.70
2019-03-28T11:45:44.019Z,21.80
2019-03-28T11:48:46.308Z,22.00
2019-03-28T11:51:48.613Z,22.20
2019-03-28T11:54:50.918Z,22.40
2019-03-28T11:57:56.394Z,22.60
2019-03-28T12:00:57.559Z,22.90
2019-03-28T12:03:59.819Z,23.00
2019-03-28T12:07:02.115Z,23.20
2019-03-28T12:10:05.283Z,23.30
2019-03-28T12:13:07.694Z,23.50
2019-03-28T12:16:10.202Z,23.70
2019-03-28T12:19:12.524Z,23.90
2019-03-28T12:22:14.821Z,24.20
2019-03-28T12:25:17.131Z,24.40
2019-03-28T12:28:19.439Z,24.70
2019-03-28T12:31:21.730Z,24.90
2019-03-28T12:34:23.997Z,25.10
2019-03-28T12:37:26.605Z,25.30
2019-03-28T12:40:28.906Z,25.60
2019-03-28T12:43:31.199Z,25.70
2019-03-28T12:46:33.528Z,25.90
2019-03-28T12:49:35.791Z,26.20
2019-03-28T12:52:38.078Z,26.30
2019-03-28T12:55:40.341Z,26.70
2019-03-28T12:58:42.637Z,26.90
2019-03-28T13:01:44.924Z,27.30
2019-03-28T13:04:47.218Z,27.80
2019-03-28T13:07:49.487Z,28.00
2019-03-28T13:10:51.760Z,29.10
2019-03-28T13:13:54.052Z,29.70
2019-03-28T13:16:56.373Z,30.10
2019-03-28T13:19:58.629Z,30.30
2019-03-28T13:23:00.900Z,30.50
2019-03-28T13:26:03.233Z,30.20
2019-03-28T13:29:05.575Z,29.90
2019-03-28T13:32:07.809Z,30.10
2019-03-28T13:35:10.835Z,30.10
2019-03-28T13:38:13.110Z,30.40
2019-03-28T13:41:15.406Z,31.40
2019-03-28T13:44:17.689Z,32.60
2019-03-28T13:47:20.930Z,32.20
2019-03-28T13:50:24.729Z,33.00
2019-03-28T13:53:38.802Z,34.00
2019-03-28T13:56:31.014Z,35.00
2019-03-28T13:59:35.338Z,35.50
2019-03-28T14:02:37.327Z,36.10
2019-03-28T14:05:39.604Z,36.70
2019-03-28T14:08:41.929Z,36.90
2019-03-28T14:11:44.234Z,36.80
2019-03-28T14:14:46.540Z,36.90
2019-03-28T14:17:48.848Z,37.20
2019-03-28T14:20:51.138Z,37.30
2019-03-28T14:23:53.430Z,37.70
2019-03-28T14:26:55.683Z,37.70
2019-03-28T14:29:58.016Z,37.50
2019-03-28T14:33:11.036Z,37.90
2019-03-28T14:36:04.267Z,38.00
2019-03-28T14:39:08.903Z,38.00
2019-03-28T14:42:11.191Z,38.10
2019-03-28T14:45:14.196Z,38.20
2019-03-28T14:48:16.478Z,38.30
2019-03-28T14:51:18.804Z,38.10
2019-03-28T14:54:21.167Z,38.20
2019-03-28T14:57:24.620Z,38.40
2019-03-28T15:00:54.751Z,38.40
2019-03-28T15:03:57.028Z,37.70
2019-03-28T15:06:59.717Z,36.20
2019-03-28T15:10:02.234Z,36.10
2019-03-28T15:13:05.529Z,35.60
2019-03-28T15:16:07.864Z,35.60
2019-03-28T15:19:10.125Z,35.00
2019-03-28T15:22:12.400Z,34.80
2019-03-28T15:25:14.781Z,34.60
2019-03-28T15:28:17.054Z,34.10
2019-03-28T15:31:19.334Z,34.00
2019-03-28T15:34:21.674Z,33.80
2019-03-28T15:37:25.048Z,33.80
2019-03-28T15:40:27.354Z,33.70
2019-03-28T15:43:29.677Z,33.10
2019-03-28T15:46:31.987Z,32.90
2019-03-28T15:49:34.694Z,32.80
2019-03-28T15:52:37.003Z,32.40
2019-03-28T15:55:39.275Z,32.70
2019-03-28T15:58:42.729Z,32.70
2019-03-28T16:01:45.037Z,32.60
2019-03-28T16:04:47.303Z,33.00
2019-03-28T16:07:49.631Z,33.90
2019-03-28T16:10:51.920Z,33.30
2019-03-28T16:13:54.259Z,32.60
2019-03-28T16:16:56.547Z,32.00
2019-03-28T16:19:58.967Z,32.30
2019-03-28T16:23:01.230Z,33.90
2019-03-28T16:26:03.593Z,34.10
2019-03-28T16:29:07.228Z,34.50
2019-03-28T16:32:09.739Z,34.80
2019-03-28T16:35:13.641Z,34.90
2019-03-28T16:38:15.995Z,34.20
2019-03-28T16:41:18.290Z,32.80
2019-03-28T16:44:20.646Z,33.80
2019-03-28T16:47:22.940Z,34.30
2019-03-28T16:50:25.212Z,34.10
2019-03-28T16:53:27.469Z,34.10
2019-03-28T16:56:29.799Z,34.10
2019-03-28T16:59:32.149Z,33.90
2019-03-28T17:02:34.436Z,33.60
2019-03-28T17:05:36.929Z,32.90
2019-03-28T17:08:39.320Z,32.70
2019-03-28T17:11:41.639Z,31.90
2019-03-28T17:14:43.947Z,31.20
2019-03-28T17:17:46.236Z,30.50
2019-03-28T17:20:48.493Z,30.10
2019-03-28T17:23:50.781Z,29.70
2019-03-28T17:26:54.122Z,29.40
2019-03-28T17:29:56.413Z,28.90
2019-03-28T17:33:00.721Z,28.50
2019-03-28T17:36:03.077Z,28.20
2019-03-28T17:39:07.083Z,27.90
2019-03-28T17:42:09.447Z,27.60
2019-03-28T17:45:11.946Z,27.40
2019-03-28T17:48:14.279Z,27.10
2019-03-28T17:51:18.941Z,27.00
2019-03-28T17:54:21.329Z,26.80
2019-03-28T17:57:23.608Z,26.70
2019-03-28T18:00:28.225Z,26.30
2019-03-28T18:03:31.736Z,26.00
2019-03-28T18:06:34.917Z,25.80
2019-03-28T18:09:37.832Z,25.70
2019-03-28T18:12:40.179Z,25.50
2019-03-28T18:15:43.431Z,25.40
2019-03-28T18:18:45.711Z,25.20
2019-03-28T18:21:47.997Z,25.10
2019-03-28T18:24:50.276Z,25.00
2019-03-28T18:27:52.541Z,24.90
2019-03-28T18:30:54.841Z,24.80
2019-03-28T18:33:57.148Z,24.70
2019-03-28T18:36:59.446Z,24.60
2019-03-28T18:40:04.207Z,24.50
2019-03-28T18:43:05.749Z,24.40
2019-03-28T18:46:08.004Z,24.30
2019-03-28T18:49:10.353Z,24.20
2019-03-28T18:52:12.604Z,24.10
2019-03-28T18:55:14.982Z,24.00
2019-03-28T18:58:17.305Z,24.00
2019-03-28T19:01:19.578Z,23.90
2019-03-28T19:04:21.838Z,23.80
2019-03-28T19:07:24.113Z,23.70
2019-03-28T19:13:27.936Z,23.50
2019-03-28T19:16:30.262Z,23.50
2019-03-28T19:19:39.340Z,23.40
2019-03-28T19:22:36.619Z,23.30
2019-03-28T19:25:38.932Z,23.20
2019-03-28T19:28:41.201Z,23.10
2019-03-28T19:31:43.488Z,23.10
2019-03-28T19:34:45.729Z,23.00
2019-03-28T19:37:48.191Z,22.90
2019-03-28T19:40:50.445Z,22.90
2019-03-28T19:43:55.886Z,22.80
2019-03-28T19:46:58.179Z,22.70
2019-03-28T19:50:00.459Z,22.60
2019-03-28T19:53:04.175Z,22.60
2019-03-28T19:56:06.585Z,22.50
2019-03-28T19:59:08.889Z,22.40
2019-03-28T20:02:14.119Z,22.40
2019-03-28T20:05:15.252Z,22.30
2019-03-28T20:08:18.310Z,22.30
2019-03-28T20:11:22.166Z,22.20
2019-03-28T20:14:24.489Z,22.20
2019-03-28T20:17:26.790Z,22.10
2019-03-28T20:20:29.075Z,22.10
2019-03-28T20:23:31.350Z,22.10
2019-03-28T20:26:33.645Z,22.00
2019-03-28T20:29:35.931Z,21.90
2019-03-28T20:32:38.267Z,21.80
2019-03-28T20:35:41.735Z,21.80
2019-03-28T20:38:44.859Z,21.70
2019-03-28T20:41:48.519Z,21.70
2019-03-28T20:44:50.867Z,21.60
2019-03-28T20:47:53.219Z,21.50
2019-03-28T20:50:55.639Z,21.40
2019-03-28T20:53:57.947Z,21.30
2019-03-28T20:57:00.260Z,21.20
2019-03-28T21:00:02.714Z,21.20
2019-03-28T21:03:05.811Z,21.10
2019-03-28T21:06:15.058Z,21.10
2019-03-28T21:09:13.303Z,21.00
2019-03-28T21:12:15.558Z,21.00
2019-03-28T21:15:17.910Z,20.90
2019-03-28T21:18:20.202Z,20.90
2019-03-28T21:21:22.543Z,20.80
2019-03-28T21:24:24.813Z,20.80
2019-03-28T21:27:41.148Z,20.80
2019-03-28T21:31:06.743Z,20.70
2019-03-28T21:34:14.691Z,20.60
2019-03-28T21:37:18.325Z,20.50
2019-03-28T21:40:21.532Z,20.50
2019-03-28T21:43:25.637Z,20.40
2019-03-28T21:46:42.314Z,20.40
2019-03-28T21:49:48.560Z,20.30
2019-03-28T21:52:54.913Z,20.20
2019-03-28T21:56:03.749Z,20.20
2019-03-28T21:59:08.511Z,20.10
2019-03-28T22:02:26.026Z,20.00
2019-03-28T22:05:32.523Z,20.00
2019-03-28T22:08:58.236Z,19.90
2019-03-28T22:12:02.962Z,19.80
2019-03-28T22:15:08.340Z,19.80
2019-03-28T22:18:14.637Z,19.70
2019-03-28T22:21:20.847Z,19.70
2019-03-28T22:24:28.787Z,19.60
2019-03-28T22:27:32.592Z,19.60
2019-03-28T22:30:38.911Z,19.50
2019-03-28T22:33:43.074Z,19.50
2019-03-28T22:36:57.159Z,19.40
2019-03-28T22:39:54.776Z,19.30
2019-03-28T22:42:58.802Z,19.30
2019-03-28T22:46:12.900Z,19.30
2019-03-28T22:49:18.293Z,19.20
2019-03-28T22:56:45.756Z,19.10
2019-03-28T23:04:38.342Z,18.90
2019-03-28T23:08:26.219Z,18.80
2019-03-28T23:11:40.536Z,18.80
2019-03-28T23:19:12.468Z,18.70
2019-03-28T23:22:27.709Z,18.60
2019-03-28T23:25:39.887Z,18.50
2019-03-28T23:28:42.911Z,18.50
2019-03-28T23:31:50.713Z,18.40
2019-03-28T23:34:53.686Z,18.40
2019-03-28T23:38:25.429Z,18.30
2019-03-28T23:41:35.935Z,18.30
2019-03-28T23:45:24.176Z,18.20
2019-03-28T23:48:30.055Z,18.10
2019-03-28T23:51:35.284Z,18.10
2019-03-28T23:54:42.921Z,18.00
2019-03-28T23:57:46.357Z,18.00
